Time;durP1;ratioP1;P1;durP2;ratioP2;P2;SDS_P1;SDS_P2;PMS_P1;PMS_P2;Temp;Humidity;BMP_temperature;BMP_pressure;BME280_temperature;BME280_humidity;BME280_pressure;Samples;Min_cycle;Max_cycle;Signal;HPM_P1;HPM_P2
2023/02/01 00:00:56;;;;;;;17.10;2.90;;;;;;;2.83;100.00;101787.63;5088924;28;20052;-49
2023/02/01 00:03:24;;;;;;;19.15;3.25;;;;;;;2.81;100.00;101784.22;5071753;28;20048;-52
2023/02/01 00:05:59;;;;;;;20.83;3.35;;;;;;;2.95;100.00;101770.13;5073241;28;20055;-50
2023/02/01 00:08:27;;;;;;;18.42;2.90;;;;;;;2.93;100.00;101766.69;5072627;28;20498;-53
2023/02/01 00:11:01;;;;;;;17.90;3.45;;;;;;;2.88;100.00;101770.22;5072911;28;20090;-52
2023/02/01 00:13:30;;;;;;;16.20;4.07;;;;;;;2.86;100.00;101774.59;5072964;28;20116;-50
2023/02/01 00:16:04;;;;;;;16.95;3.00;;;;;;;3.00;100.00;101769.13;5072996;28;20044;-50
2023/02/01 00:18:32;;;;;;;16.75;2.78;;;;;;;3.01;100.00;101764.78;5072968;28;20076;-52
2023/02/01 00:21:01;;;;;;;16.27;2.88;;;;;;;2.95;100.00;101759.72;5072867;28;20430;-52
2023/02/01 00:23:32;;;;;;;19.15;2.97;;;;;;;2.98;100.00;101762.25;5072807;28;20039;-51
2023/02/01 00:26:03;;;;;;;15.98;2.30;;;;;;;2.97;100.00;101756.22;5072764;28;20553;-50
2023/02/01 00:28:31;;;;;;;15.90;4.68;;;;;;;3.06;100.00;101765.56;5069748;28;20057;-50
2023/02/01 00:31:00;;;;;;;15.27;3.05;;;;;;;3.00;100.00;101765.66;5069485;28;20529;-53
2023/02/01 00:33:29;;;;;;;17.90;2.92;;;;;;;3.04;100.00;101760.41;5069228;28;20041;-51
2023/02/01 00:35:58;;;;;;;16.08;2.72;;;;;;;2.99;100.00;101750.97;5069884;28;20044;-50
2023/02/01 00:38:27;;;;;;;14.07;2.38;;;;;;;3.01;100.00;101757.00;5068895;28;20072;-53
2023/02/01 00:40:55;;;;;;;13.10;2.65;;;;;;;3.00;100.00;101757.88;5072955;28;20044;-52
2023/02/01 00:43:25;;;;;;;18.95;3.05;;;;;;;3.07;100.00;101763.81;5072359;28;20495;-52
2023/02/01 00:45:53;;;;;;;14.13;3.85;;;;;;;3.10;100.00;101759.41;5072199;28;20495;-51
2023/02/01 00:48:21;;;;;;;14.65;2.67;;;;;;;3.12;100.00;101757.66;5072158;28;20137;-49
2023/02/01 00:50:51;;;;;;;11.15;2.55;;;;;;;3.22;100.00;101753.13;5072505;28;20044;-54
2023/02/01 00:53:19;;;;;;;17.10;2.97;;;;;;;3.15;100.00;101739.41;5072313;28;20498;-52
2023/02/01 00:55:47;;;;;;;12.68;2.33;;;;;;;3.13;100.00;101732.50;5072265;28;20522;-52
2023/02/01 00:58:16;;;;;;;11.45;2.30;;;;;;;3.13;100.00;101741.16;5072154;28;20419;-52
2023/02/01 01:00:46;;;;;;;16.02;2.53;;;;;;;3.14;100.00;101744.63;5072731;28;20049;-51
2023/02/01 01:03:18;;;;;;;23.65;3.63;;;;;;;3.22;100.00;101747.94;5072293;28;20545;-53
2023/02/01 01:05:46;;;;;;;16.52;2.80;;;;;;;3.18;100.00;101749.72;5072481;28;20091;-52
2023/02/01 01:08:15;;;;;;;14.77;3.28;;;;;;;3.16;100.00;101748.91;5072239;28;20043;-52
2023/02/01 01:10:44;;;;;;;17.67;2.50;;;;;;;3.17;100.00;101754.97;5071054;28;20049;-51
2023/02/01 01:13:12;;;;;;;21.73;3.60;;;;;;;3.15;100.00;101762.78;5069521;28;20123;-51
2023/02/01 01:15:40;;;;;;;11.48;2.60;;;;;;;3.16;100.00;101761.03;5068849;28;20045;-53
2023/02/01 01:18:10;;;;;;;17.75;2.95;;;;;;;3.12;100.00;101760.25;5069027;28;20055;-52
2023/02/01 01:20:40;;;;;;;22.52;4.18;;;;;;;3.14;100.00;101753.28;5073934;28;20045;-52
2023/02/01 01:23:09;;;;;;;17.75;3.58;;;;;;;3.15;100.00;101739.41;5076168;28;20491;-51
2023/02/01 01:25:38;;;;;;;17.70;2.80;;;;;;;3.17;100.00;101731.56;5073838;28;20050;-52
2023/02/01 01:28:08;;;;;;;14.65;2.47;;;;;;;3.11;100.00;101740.34;5073037;28;20056;-53
2023/02/01 01:30:36;;;;;;;18.42;3.08;;;;;;;3.21;100.00;101739.25;5072491;28;20561;-52
2023/02/01 01:33:06;;;;;;;14.57;2.80;;;;;;;3.19;100.00;101729.78;5072706;28;20048;-52
2023/02/01 01:35:36;;;;;;;15.85;3.15;;;;;;;3.21;100.00;101730.63;5073056;28;20048;-53
2023/02/01 01:38:04;;;;;;;18.73;2.88;;;;;;;3.16;100.00;101730.72;5075164;28;20064;-50
2023/02/01 01:40:32;;;;;;;15.82;2.70;;;;;;;3.21;100.00;101728.00;5075761;28;20483;-51
2023/02/01 01:43:01;;;;;;;18.67;3.38;;;;;;;3.22;100.00;101727.13;5075551;28;20047;-51
2023/02/01 01:45:32;;;;;;;21.90;3.10;;;;;;;3.20;100.00;101726.28;5071966;28;20036;-51
2023/02/01 01:48:05;;;;;;;10.13;2.58;;;;;;;3.18;100.00;101722.88;5072712;28;20036;-48
2023/02/01 01:50:39;;;;;;;18.23;3.20;;;;;;;3.25;100.00;101721.03;5072261;28;20036;-51
2023/02/01 01:53:12;;;;;;;18.75;2.90;;;;;;;3.20;100.00;101728.91;5071463;28;20049;-51
2023/02/01 01:55:44;;;;;;;19.38;2.72;;;;;;;3.18;100.00;101723.72;5075753;28;20502;-49
2023/02/01 01:58:17;;;;;;;13.68;3.08;;;;;;;3.19;100.00;101715.06;5075435;28;20055;-52
2023/02/01 02:00:48;;;;;;;18.20;2.85;;;;;;;3.21;100.00;101721.06;5075770;28;20056;-51
2023/02/01 02:03:20;;;;;;;14.85;2.58;;;;;;;3.20;100.00;101718.50;5075315;28;20048;-52
2023/02/01 02:05:51;;;;;;;16.45;2.83;;;;;;;3.18;100.00;101715.94;5074849;28;20180;-61
2023/02/01 02:08:21;;;;;;;16.77;3.30;;;;;;;3.18;100.00;101705.53;5071615;28;20052;-53
2023/02/01 02:11:02;;;;;;;16.30;2.80;;;;;;;3.15;100.00;101705.59;5072308;28;20105;-60
2023/02/01 02:13:33;;;;;;;17.20;2.40;;;;;;;3.17;100.00;101703.81;5072767;28;20167;-60
2023/02/01 02:16:13;;;;;;;15.40;2.40;;;;;;;3.15;100.00;101699.53;5073459;28;20045;-61
2023/02/01 02:18:51;;;;;;;14.52;2.60;;;;;;;3.11;100.00;101697.88;5075277;28;20457;-60
2023/02/01 02:21:33;;;;;;;18.23;4.80;;;;;;;3.12;100.00;101700.47;5074903;28;20048;-61
2023/02/01 02:24:23;;;;;;;19.65;2.70;;;;;;;3.09;100.00;101697.91;5075434;28;20048;-61
2023/02/01 02:27:24;;;;;;;12.65;2.72;;;;;;;3.06;100.00;101697.13;5075432;28;20380;-60
2023/02/01 02:30:21;;;;;;;14.10;3.05;;;;;;;3.06;100.00;101695.38;5075151;28;20503;-60
2023/02/01 02:33:20;;;;;;;20.33;2.65;;;;;;;3.09;100.00;101691.88;5073558;28;20503;-60
2023/02/01 02:35:54;;;;;;;23.27;3.35;;;;;;;3.15;100.00;101684.81;5073430;28;20395;-60
2023/02/01 02:38:31;;;;;;;15.65;3.35;;;;;;;3.13;100.00;101688.31;5073809;28;20060;-60
2023/02/01 02:41:08;;;;;;;15.50;3.20;;;;;;;3.14;100.00;101684.84;5073132;28;20063;-60
2023/02/01 02:49:30;;;;;;;21.65;3.35;;;;;;;3.11;100.00;101679.69;5074925;28;20051;-62
2023/02/01 02:54:53;;;;;;;17.48;2.55;;;;;;;3.09;100.00;101671.91;5075016;28;20036;-60
2023/02/01 03:05:51;;;;;;;19.27;3.28;;;;;;;3.06;100.00;101664.19;5070953;28;20054;-60
2023/02/01 03:08:21;;;;;;;21.40;3.13;;;;;;;3.10;100.00;101667.59;5072137;28;20055;-61
2023/02/01 03:10:54;;;;;;;19.95;2.92;;;;;;;3.11;100.00;101664.97;5072172;28;20054;-59
2023/02/01 03:13:33;;;;;;;17.73;2.78;;;;;;;3.13;100.00;101652.78;5072261;28;20068;-60
2023/02/01 03:16:08;;;;;;;18.27;3.13;;;;;;;3.12;100.00;101632.88;5073947;28;20047;-60
2023/02/01 03:18:44;;;;;;;17.55;3.25;;;;;;;3.14;100.00;101630.25;5073921;28;20045;-60
2023/02/01 03:21:21;;;;;;;18.02;2.88;;;;;;;3.13;100.00;101634.56;5072009;28;20058;-60
2023/02/01 03:23:51;;;;;;;17.73;2.75;;;;;;;3.14;100.00;101633.69;5072476;28;20048;-60
2023/02/01 03:26:21;;;;;;;20.20;2.75;;;;;;;3.19;100.00;101633.59;5072765;28;20071;-59
2023/02/01 03:28:55;;;;;;;16.15;3.17;;;;;;;3.17;100.00;101654.41;5071235;28;20048;-60
2023/02/01 03:31:24;;;;;;;16.92;2.63;;;;;;;3.19;100.00;101652.66;5074127;28;20089;-60
2023/02/01 03:33:52;;;;;;;17.50;3.47;;;;;;;3.25;100.00;101651.66;5073914;28;20048;-60
2023/02/01 03:36:27;;;;;;;13.77;2.75;;;;;;;3.29;100.00;101652.47;5073995;28;20131;-60
2023/02/01 03:39:01;;;;;;;21.00;2.88;;;;;;;3.34;100.00;101645.41;5073801;28;20115;-60
2023/02/01 03:41:36;;;;;;;17.88;2.40;;;;;;;3.29;100.00;101647.25;5070599;28;20394;-60
2023/02/01 03:44:13;;;;;;;16.15;2.80;;;;;;;3.22;100.00;101655.19;5072456;28;20048;-60
2023/02/01 03:46:49;;;;;;;16.55;2.53;;;;;;;3.22;100.00;101654.34;5073716;28;20055;-60
2023/02/01 03:49:23;;;;;;;22.25;3.10;;;;;;;3.31;100.00;101658.47;5072569;28;20353;-60
2023/02/01 03:51:55;;;;;;;15.65;3.00;;;;;;;3.32;100.00;101662.78;5070960;28;20056;-60
2023/02/01 03:54:24;;;;;;;18.38;5.03;;;;;;;3.32;100.00;101655.84;5071789;28;20052;-60
2023/02/01 03:56:55;;;;;;;17.42;3.35;;;;;;;3.32;100.00;101661.03;5073620;28;20154;-60
2023/02/01 03:59:23;;;;;;;18.73;3.20;;;;;;;3.37;100.00;101656.59;5073384;28;20051;-60
2023/02/01 04:01:52;;;;;;;17.73;2.92;;;;;;;3.44;100.00;101646.91;5073681;28;20502;-60
2023/02/01 04:04:20;;;;;;;22.75;4.22;;;;;;;3.37;100.00;101648.78;5071536;28;20055;-61
2023/02/01 04:06:52;;;;;;;20.98;3.10;;;;;;;3.35;100.00;101649.72;5070929;28;20117;-61
2023/02/01 04:09:21;;;;;;;20.67;2.72;;;;;;;3.33;100.00;101646.31;5071152;28;20058;-61
2023/02/01 04:11:49;;;;;;;21.55;4.30;;;;;;;3.28;100.00;101645.53;5070763;28;20051;-61
2023/02/01 04:14:17;;;;;;;19.02;2.88;;;;;;;3.30;100.00;101646.34;5072492;28;20059;-61
2023/02/01 04:16:46;;;;;;;20.60;3.00;;;;;;;3.30;100.00;101648.94;5073241;28;20045;-61
2023/02/01 04:19:14;;;;;;;26.85;3.42;;;;;;;3.26;100.00;101645.59;5073148;28;20076;-61
2023/02/01 04:21:42;;;;;;;17.08;3.30;;;;;;;3.29;100.00;101639.47;5071735;28;20119;-61
2023/02/01 04:24:12;;;;;;;19.70;3.08;;;;;;;3.28;100.00;101649.00;5070918;28;20441;-61
2023/02/01 04:26:40;;;;;;;18.75;3.05;;;;;;;3.24;100.00;101647.34;5071893;28;20101;-61
2023/02/01 04:29:09;;;;;;;14.77;2.28;;;;;;;3.21;100.00;101647.41;5072775;28;20044;-61
2023/02/01 04:31:38;;;;;;;16.25;3.03;;;;;;;3.22;100.00;101651.75;5072097;28;20131;-61
2023/02/01 04:34:06;;;;;;;18.67;3.20;;;;;;;3.21;100.00;101642.22;5071116;28;20051;-61
2023/02/01 04:36:34;;;;;;;20.48;3.10;;;;;;;3.22;100.00;101644.78;5070600;28;20045;-61
2023/02/01 04:39:02;;;;;;;21.52;3.10;;;;;;;3.22;100.00;101664.75;5069951;28;20139;-61
2023/02/01 04:41:31;;;;;;;17.48;2.40;;;;;;;3.27;100.00;101662.03;5072368;28;20115;-61
2023/02/01 04:44:03;;;;;;;21.25;3.65;;;;;;;3.25;100.00;101656.03;5071022;28;20376;-61
2023/02/01 04:46:31;;;;;;;20.88;2.80;;;;;;;3.30;100.00;101656.75;5070868;28;20048;-61
2023/02/01 04:48:59;;;;;;;16.75;3.30;;;;;;;3.36;100.00;101657.47;5071876;28;20511;-61
2023/02/01 04:51:30;;;;;;;21.45;3.40;;;;;;;3.43;100.00;101647.78;5070558;28;20131;-61
2023/02/01 04:53:58;;;;;;;16.20;2.58;;;;;;;3.50;100.00;101658.91;5072194;28;20049;-61
2023/02/01 04:56:26;;;;;;;20.65;3.25;;;;;;;3.48;100.00;101658.97;5072843;28;20525;-60
2023/02/01 04:58:56;;;;;;;20.25;2.88;;;;;;;3.53;100.00;101659.72;5072841;28;20403;-61
2023/02/01 05:01:25;;;;;;;14.27;2.80;;;;;;;3.58;100.00;101649.19;5072402;28;20044;-61
2023/02/01 05:03:53;;;;;;;20.10;3.30;;;;;;;3.64;100.00;101646.47;5072504;28;20045;-61
2023/02/01 05:06:21;;;;;;;20.38;4.00;;;;;;;3.72;100.00;101638.47;5072648;28;20056;-61
2023/02/01 05:08:50;;;;;;;17.60;3.58;;;;;;;3.77;100.00;101647.03;5072708;28;20398;-61
2023/02/01 05:14:01;;;;;;;20.15;3.47;;;;;;;3.89;100.00;101654.53;5069444;28;20124;-61
2023/02/01 05:16:29;;;;;;;17.15;3.28;;;;;;;3.97;100.00;101653.50;5071006;28;20053;-61
2023/02/01 05:18:57;;;;;;;19.92;3.20;;;;;;;4.01;100.00;101649.94;5070714;28;20055;-61
2023/02/01 05:21:26;;;;;;;18.75;3.10;;;;;;;4.11;100.00;101643.59;5072470;28;20552;-61
2023/02/01 05:24:16;;;;;;;14.32;2.75;;;;;;;4.15;100.00;101637.41;5072331;28;20504;-61
2023/02/01 05:26:44;;;;;;;18.65;2.78;;;;;;;4.12;100.00;101636.63;5071246;28;20518;-61
2023/02/01 05:29:14;;;;;;;15.32;4.05;;;;;;;4.17;100.00;101638.25;5070324;28;20052;-61
2023/02/01 05:31:42;;;;;;;16.50;3.30;;;;;;;4.18;100.00;101634.72;5071521;28;20048;-61
2023/02/01 05:34:14;;;;;;;18.40;2.90;;;;;;;4.32;100.00;101634.38;5072397;28;20369;-61
2023/02/01 05:36:45;;;;;;;16.55;3.13;;;;;;;4.30;100.00;101630.94;5072382;28;20045;-61
2023/02/01 05:39:13;;;;;;;18.40;3.13;;;;;;;4.32;100.00;101637.00;5071971;28;20426;-61
2023/02/01 05:41:41;;;;;;;20.00;3.03;;;;;;;4.32;100.00;101639.59;5072158;28;20089;-62
2023/02/01 05:44:09;;;;;;;16.00;2.90;;;;;;;4.33;100.00;101630.03;5070042;28;20572;-59
2023/02/01 05:46:39;;;;;;;21.92;2.72;;;;;;;4.36;100.00;101642.94;5069411;28;20432;-62
2023/02/01 05:49:08;;;;;;;15.57;2.58;;;;;;;4.40;100.00;101649.78;5072011;28;20048;-61
2023/02/01 05:51:36;;;;;;;19.60;2.85;;;;;;;4.44;100.00;101648.81;5072153;28;20107;-61
2023/02/01 05:54:04;;;;;;;18.65;3.42;;;;;;;4.45;100.00;101658.34;5072042;28;20479;-62
2023/02/01 05:56:32;;;;;;;15.27;2.72;;;;;;;4.46;100.00;101657.47;5069945;28;20040;-59
2023/02/01 05:59:00;;;;;;;17.02;3.13;;;;;;;4.48;100.00;101654.81;5068988;28;20055;-60
2023/02/01 06:01:27;;;;;;;16.85;3.60;;;;;;;4.48;100.00;101666.06;5068910;28;20079;-59
2023/02/01 06:03:56;;;;;;;14.10;3.08;;;;;;;4.56;100.00;101671.09;5069023;28;20103;-60
2023/02/01 06:06:24;;;;;;;17.60;2.83;;;;;;;4.59;100.00;101657.13;5072347;28;20048;-61
2023/02/01 06:08:52;;;;;;;18.58;3.75;;;;;;;4.59;100.00;101663.19;5074150;28;20127;-62
2023/02/01 06:11:21;;;;;;;18.50;3.63;;;;;;;4.60;100.00;101658.84;5075330;28;20048;-60
2023/02/01 06:14:00;;;;;;;20.45;3.28;;;;;;;4.59;100.00;101654.53;5075564;28;20102;-62
2023/02/01 06:16:29;;;;;;;16.60;3.42;;;;;;;4.69;100.00;101649.00;5075324;28;20450;-60
2023/02/01 06:18:58;;;;;;;18.38;3.47;;;;;;;4.62;100.00;101636.19;5073779;28;20036;-60
2023/02/01 06:21:26;;;;;;;16.13;2.90;;;;;;;4.63;100.00;101648.31;5071797;28;20051;-60
2023/02/01 06:23:58;;;;;;;26.98;4.22;;;;;;;4.70;100.00;101655.94;5074051;28;20068;-60
2023/02/01 06:26:28;;;;;;;14.35;2.63;;;;;;;4.68;100.00;101657.72;5071946;28;20044;-60
2023/02/01 06:28:57;;;;;;;14.80;2.67;;;;;;;4.66;100.00;101650.84;5073266;28;20123;-61
2023/02/01 06:31:26;;;;;;;20.55;3.03;;;;;;;4.66;100.00;101654.31;5074893;28;20044;-60
2023/02/01 06:33:54;;;;;;;15.63;3.38;;;;;;;4.72;100.00;101661.94;5075012;28;20056;-60
2023/02/01 06:36:26;;;;;;;17.63;2.65;;;;;;;4.77;100.00;101656.59;5074910;28;20049;-60
2023/02/01 06:38:59;;;;;;;20.08;3.42;;;;;;;4.73;100.00;101668.00;5069815;28;20060;-61
2023/02/01 06:41:27;;;;;;;15.32;2.63;;;;;;;4.75;100.00;101668.84;5071534;28;20044;-60
2023/02/01 06:43:59;;;;;;;15.55;2.63;;;;;;;4.79;100.00;101669.63;5075084;28;20083;-60
2023/02/01 06:46:27;;;;;;;18.40;3.08;;;;;;;4.81;100.00;101667.81;5074898;28;20041;-60
2023/02/01 06:48:55;;;;;;;16.67;2.80;;;;;;;4.76;100.00;101677.50;5074760;28;20052;-62
2023/02/01 06:51:27;;;;;;;10.93;2.80;;;;;;;4.76;100.00;101670.56;5074103;28;20079;-60
2023/02/01 06:53:55;;;;;;;16.63;2.60;;;;;;;4.73;100.00;101671.50;5069543;28;20056;-61
2023/02/01 06:56:24;;;;;;;23.38;3.70;;;;;;;4.78;100.00;101667.91;5073248;28;20067;-60
2023/02/01 06:58:52;;;;;;;16.63;3.35;;;;;;;4.83;100.00;101666.03;5074704;28;20487;-60
2023/02/01 07:01:20;;;;;;;17.88;3.22;;;;;;;4.79;100.00;101667.84;5074444;28;20044;-60
2023/02/01 07:03:49;;;;;;;19.52;3.08;;;;;;;4.81;100.00;101671.25;5074247;28;20099;-60
2023/02/01 07:06:18;;;;;;;16.95;2.90;;;;;;;4.79;100.00;101675.66;5072870;28;20044;-60
2023/02/01 07:08:48;;;;;;;15.15;3.05;;;;;;;4.84;100.00;101673.81;5072686;28;20528;-61
2023/02/01 07:11:18;;;;;;;17.02;3.22;;;;;;;4.88;100.00;101675.41;5071368;28;20533;-61
2023/02/01 07:13:46;;;;;;;19.35;3.10;;;;;;;4.84;100.00;101671.19;5073293;28;20090;-61
2023/02/01 07:16:16;;;;;;;15.77;2.88;;;;;;;4.85;100.00;101685.94;5072825;28;20075;-61
2023/02/01 07:18:44;;;;;;;21.52;3.17;;;;;;;4.85;100.00;101682.47;5070139;28;20499;-61
2023/02/01 07:21:12;;;;;;;17.55;3.13;;;;;;;4.84;100.00;101683.34;5070655;28;20098;-61
2023/02/01 07:23:40;;;;;;;19.42;3.35;;;;;;;4.88;100.00;101679.75;5069412;28;20127;-61
2023/02/01 07:26:12;;;;;;;20.15;3.55;;;;;;;4.80;100.00;101681.72;5071300;28;20453;-61
2023/02/01 07:28:41;;;;;;;15.35;2.92;;;;;;;4.80;100.00;101682.59;5070636;28;20040;-61
2023/02/01 07:31:11;;;;;;;20.33;3.75;;;;;;;4.76;100.00;101680.97;5073974;28;20452;-61
2023/02/01 07:33:39;;;;;;;13.73;3.10;;;;;;;4.74;100.00;101669.72;5073839;28;20052;-61
2023/02/01 07:36:11;;;;;;;14.73;3.03;;;;;;;4.70;100.00;101687.22;5072235;28;20556;-60
2023/02/01 07:38:40;;;;;;;17.58;2.88;;;;;;;4.74;100.00;101680.16;5068932;28;20053;-61
2023/02/01 07:41:09;;;;;;;21.65;3.47;;;;;;;4.73;100.00;101683.66;5070619;28;20082;-61
2023/02/01 07:43:37;;;;;;;19.92;2.72;;;;;;;4.68;100.00;101681.19;5070884;28;20495;-61
2023/02/01 07:46:06;;;;;;;17.83;3.10;;;;;;;4.65;100.00;101675.19;5073574;28;20048;-60
2023/02/01 07:48:35;;;;;;;18.50;2.80;;;;;;;4.67;100.00;101682.06;5073411;28;20080;-61
2023/02/01 07:51:05;;;;;;;19.67;3.08;;;;;;;4.68;100.00;101670.75;5070400;28;20048;-60
2023/02/01 07:53:34;;;;;;;14.95;2.90;;;;;;;4.63;100.00;101679.59;5068723;28;20071;-60
2023/02/01 07:56:04;;;;;;;17.27;2.78;;;;;;;4.63;100.00;101675.22;5070695;28;20479;-60
2023/02/01 07:58:33;;;;;;;20.05;3.13;;;;;;;4.67;100.00;101678.63;5070086;28;20040;-60
2023/02/01 08:03:47;;;;;;;16.52;3.28;;;;;;;4.65;100.00;101677.78;5069643;28;20122;-60
2023/02/01 08:06:15;;;;;;;16.05;2.70;;;;;;;4.65;100.00;101670.84;5070143;28;20048;-60
2023/02/01 08:08:44;;;;;;;20.88;3.45;;;;;;;4.67;100.00;101682.06;5073073;28;20450;-60
2023/02/01 08:11:13;;;;;;;18.52;2.97;;;;;;;4.66;100.00;101687.31;5073073;28;20044;-61
2023/02/01 08:13:43;;;;;;;18.10;3.97;;;;;;;4.69;100.00;101688.09;5072935;28;20453;-61
2023/02/01 08:16:13;;;;;;;17.40;2.40;;;;;;;4.73;100.00;101694.94;5070208;28;20062;-60
2023/02/01 08:18:42;;;;;;;18.80;3.30;;;;;;;4.77;100.00;101698.31;5068081;28;20144;-60
2023/02/01 08:21:12;;;;;;;17.33;3.05;;;;;;;4.77;100.00;101694.84;5085335;28;20048;-61
2023/02/01 08:23:42;;;;;;;18.23;3.15;;;;;;;4.77;100.00;101697.47;5068363;28;20098;-51
2023/02/01 08:26:14;;;;;;;16.60;2.58;;;;;;;4.76;100.00;101711.38;5070028;28;20487;-50
2023/02/01 08:28:46;;;;;;;16.63;2.45;;;;;;;4.73;100.00;101717.53;5071847;28;20127;-48
2023/02/01 08:31:16;;;;;;;17.60;2.90;;;;;;;4.70;100.00;101708.06;5072720;28;20048;-49
2023/02/01 08:33:49;;;;;;;16.98;2.78;;;;;;;4.74;100.00;101703.59;5072613;28;20485;-49
2023/02/01 08:36:18;;;;;;;14.50;2.92;;;;;;;4.80;100.00;101706.06;5072716;28;20045;-51
2023/02/01 08:38:46;;;;;;;22.10;3.90;;;;;;;4.86;100.00;101698.06;5072621;28;20586;-49
2023/02/01 08:41:16;;;;;;;13.45;3.38;;;;;;;4.97;100.00;101697.75;5072537;28;20396;-51
2023/02/01 08:43:47;;;;;;;14.10;2.60;;;;;;;5.14;100.00;101692.09;5072481;28;20048;-48
2023/02/01 08:46:16;;;;;;;14.90;2.65;;;;;;;5.35;100.00;101690.59;5072342;28;20076;-51
2023/02/01 08:48:44;;;;;;;16.63;3.17;;;;;;;5.21;100.00;101691.00;5072018;28;20047;-52
2023/02/01 08:51:15;;;;;;;17.15;3.30;;;;;;;5.27;100.00;101694.31;5072246;28;20072;-52
2023/02/01 08:53:43;;;;;;;14.00;2.67;;;;;;;5.37;100.00;101693.13;5072542;28;20494;-52
2023/02/01 08:56:13;;;;;;;14.85;2.78;;;;;;;5.49;100.00;101682.34;5072353;28;20055;-52
2023/02/01 08:58:42;;;;;;;15.88;2.90;;;;;;;5.65;100.00;101681.88;5072422;28;20049;-53
2023/02/01 09:01:13;;;;;;;18.92;3.08;;;;;;;5.75;100.00;101683.28;5072500;28;20044;-49
2023/02/01 09:03:41;;;;;;;18.55;2.83;;;;;;;5.84;100.00;101674.31;5072281;28;20471;-51
2023/02/01 09:06:12;;;;;;;15.80;2.58;;;;;;;5.85;100.00;101674.28;5072429;28;20044;-53
2023/02/01 09:08:41;;;;;;;20.05;4.20;;;;;;;5.93;100.00;101664.44;5072425;28;20075;-53
2023/02/01 09:11:12;;;;;;;23.38;4.85;;;;;;;6.07;100.00;101676.22;5072247;28;20066;-53
2023/02/01 09:13:41;;;;;;;19.60;2.90;;;;;;;6.11;100.00;101667.38;5072379;28;20048;-50
2023/02/01 09:16:13;;;;;;;16.67;2.90;;;;;;;6.29;100.00;101662.44;5072021;28;20106;-51
2023/02/01 09:18:42;;;;;;;17.33;2.95;;;;;;;6.32;100.00;101662.34;5072095;28;20048;-53
2023/02/01 09:21:30;;;;;;;15.52;3.00;;;;;;;6.30;100.00;101664.13;5072390;28;20438;-50
2023/02/01 09:23:58;;;;;;;16.65;2.95;;;;;;;6.21;100.00;101658.31;5072114;28;20471;-48
2023/02/01 09:26:26;;;;;;;16.48;3.72;;;;;;;6.21;100.00;101663.53;5070345;28;20048;-52
2023/02/01 09:29:00;;;;;;;15.75;2.80;;;;;;;6.22;100.00;101654.81;5069183;28;20127;-49
2023/02/01 09:31:29;;;;;;;20.83;3.65;;;;;;;6.19;100.00;101660.13;5071198;28;20060;-48
2023/02/01 09:33:58;;;;;;;10.65;2.70;;;;;;;6.24;100.00;101644.28;5070658;28;20079;-48
2023/02/01 09:36:26;;;;;;;23.35;3.03;;;;;;;6.34;100.00;101650.06;5072006;28;20048;-48
2023/02/01 09:38:57;;;;;;;16.77;2.90;;;;;;;6.41;100.00;101648.97;5069692;28;20117;-50
2023/02/01 09:41:38;;;;;;;16.92;3.28;;;;;;;6.58;100.00;101654.41;5072758;28;20052;-51
2023/02/01 09:44:18;;;;;;;17.10;2.83;;;;;;;6.59;100.00;101656.13;5075824;28;20052;-52
2023/02/01 09:46:48;;;;;;;14.68;3.40;;;;;;;6.72;100.00;101658.31;5075549;28;20402;-50
2023/02/01 09:49:21;;;;;;;13.60;2.75;;;;;;;6.68;100.00;101661.94;5073724;28;20515;-49
2023/02/01 09:51:52;;;;;;;12.02;3.20;;;;;;;6.76;100.00;101672.97;5070989;28;20048;-51
2023/02/01 09:54:23;;;;;;;16.67;3.38;;;;;;;6.69;100.00;101676.72;5073575;28;20080;-52
2023/02/01 09:56:57;;;;;;;15.63;2.90;;;;;;;6.69;100.00;101661.03;5075797;28;20407;-51
2023/02/01 09:59:35;;;;;;;18.27;3.22;;;;;;;6.70;100.00;101657.53;5074628;28;20123;-51
2023/02/01 10:02:13;;;;;;;17.25;3.35;;;;;;;6.77;100.00;101645.94;5072642;28;20515;-53
2023/02/01 10:04:41;;;;;;;20.08;3.65;;;;;;;6.67;100.00;101647.19;5074759;28;20044;-52
2023/02/01 10:07:21;;;;;;;17.95;2.92;;;;;;;6.72;100.00;101658.31;5075621;28;20119;-53
2023/02/01 10:10:00;;;;;;;15.45;2.95;;;;;;;6.67;100.00;101652.41;5075526;28;20051;-53
2023/02/01 10:13:13;;;;;;;14.48;2.72;;;;;;;6.73;100.00;101671.31;5075373;28;20040;-54
2023/02/01 10:15:52;;;;;;;13.23;2.83;;;;;;;6.70;100.00;101658.38;5075516;28;20102;-52
2023/02/01 10:18:35;;;;;;;17.92;3.28;;;;;;;6.67;100.00;101647.19;5075123;28;20044;-51
2023/02/01 10:21:10;;;;;;;;;;;;;;;6.64;100.00;101650.75;5076206;28;20053;-51
2023/02/01 10:24:03;;;;;;;21.77;2.78;;;;;;;6.64;100.00;101647.28;5074610;28;19927;-53
2023/02/01 10:26:47;;;;;;;17.15;2.85;;;;;;;6.63;100.00;101654.28;5071940;28;20068;-52
2023/02/01 10:29:19;;;;;;;18.88;3.63;;;;;;;6.71;100.00;101667.09;5071904;28;20527;-51
2023/02/01 10:31:47;;;;;;;20.13;3.55;;;;;;;6.59;100.00;101645.69;5070806;28;20041;-52
2023/02/01 10:34:21;;;;;;;17.55;2.75;;;;;;;6.61;100.00;101653.47;5074743;28;20095;-52
2023/02/01 10:36:56;;;;;;;17.30;3.08;;;;;;;6.61;100.00;101650.84;5074917;28;20045;-54
2023/02/01 10:39:27;;;;;;;16.60;3.53;;;;;;;6.53;100.00;101639.81;5074618;28;20503;-54
2023/02/01 10:41:56;;;;;;;18.80;3.22;;;;;;;6.40;100.00;101635.03;5074865;28;20407;-52
2023/02/01 10:44:27;;;;;;;22.90;3.50;;;;;;;6.32;100.00;101625.75;5074514;28;20553;-49
2023/02/01 10:46:56;;;;;;;19.40;3.10;;;;;;;6.30;100.00;101627.56;5074589;28;20048;-51
2023/02/01 10:49:30;;;;;;;17.95;3.30;;;;;;;6.34;100.00;101637.88;5074792;28;20041;-53
2023/02/01 10:52:05;;;;;;;20.45;3.30;;;;;;;6.26;100.00;101634.66;5071862;28;20133;-53
2023/02/01 10:54:37;;;;;;;23.05;3.80;;;;;;;6.18;100.00;101640.13;5070857;28;20062;-54
2023/02/01 10:57:09;;;;;;;13.75;2.35;;;;;;;6.14;100.00;101637.69;5074522;28;20056;-52
2023/02/01 10:59:38;;;;;;;16.50;3.53;;;;;;;6.10;100.00;101660.44;5074470;28;20041;-54
2023/02/01 11:02:20;;;;;;;18.55;3.20;;;;;;;6.01;100.00;101647.69;5074445;28;20037;-52
2023/02/01 11:04:50;;;;;;;19.00;2.95;;;;;;;5.97;100.00;101633.00;5071588;28;20044;-53
2023/02/01 11:07:24;;;;;;;16.30;2.70;;;;;;;5.92;100.00;101639.22;5069709;28;20107;-54
2023/02/01 11:09:56;;;;;;;18.17;3.30;;;;;;;5.83;100.00;101639.50;5072833;28;20068;-54
2023/02/01 12:22:58;;;;;;;13.77;2.95;;;;;;;5.98;100.00;101578.13;5013274;28;20049;-50
2023/02/01 12:25:39;;;;;;;15.85;3.83;;;;;;;6.02;100.00;101571.91;5038499;28;20053;-50
2023/02/01 12:28:27;;;;;;;20.85;2.97;;;;;;;6.07;100.00;101574.38;5051116;28;20049;-53
2023/02/01 12:31:14;;;;;;;19.75;3.30;;;;;;;6.13;100.00;101568.06;5058458;28;20064;-51
2023/02/01 12:33:57;;;;;;;20.30;3.28;;;;;;;6.15;100.00;101574.97;5066924;28;20075;-53
2023/02/01 12:36:33;;;;;;;24.30;2.90;;;;;;;6.21;100.00;101571.28;5069321;28;20078;-52
2023/02/01 12:39:12;;;;;;;19.83;3.10;;;;;;;6.22;100.00;101579.03;5068761;28;20090;-53
2023/02/01 12:41:51;;;;;;;15.57;2.80;;;;;;;6.34;100.00;101582.13;5071326;28;20052;-51
2023/02/01 12:44:34;;;;;;;18.80;3.40;;;;;;;6.33;100.00;101554.31;5071834;28;20044;-49
2023/02/01 12:47:06;;;;;;;23.05;3.83;;;;;;;6.39;100.00;101580.22;5071031;28;20097;-53
2023/02/01 12:49:42;;;;;;;;;;;;;;;6.43;100.00;101576.56;5050670;28;20511;-51
2023/02/01 12:52:16;;;;;;;13.63;2.80;;;;;;;6.42;100.00;101578.34;5068258;28;19924;-50
2023/02/01 12:54:50;;;;;;;18.35;3.55;;;;;;;6.45;100.00;101576.50;5071833;28;20037;-52
2023/02/01 12:57:24;;;;;;;18.20;2.78;;;;;;;6.47;100.00;101566.88;5071731;28;20052;-51
2023/02/01 13:00:00;;;;;;;18.13;3.33;;;;;;;6.50;100.00;101578.06;5070743;28;20056;-48
2023/02/01 13:02:38;;;;;;;21.05;3.03;;;;;;;6.51;100.00;101568.47;5072685;28;20127;-52
2023/02/01 13:05:16;;;;;;;18.40;3.13;;;;;;;6.57;100.00;101561.25;5072314;28;20572;-53
2023/02/01 13:07:52;;;;;;;20.50;3.33;;;;;;;6.54;100.00;101566.56;5071833;28;20495;-51
2023/02/01 13:10:28;;;;;;;19.17;2.80;;;;;;;6.54;100.00;101563.97;5068852;28;20044;-50